sensor_id;sensor_type;location;lat;lon;timestamp;temperature;humidity
22108;DHT22;11220;48.812;9.128;2023-08-31T00:01:39;20.20;99.90
22108;DHT22;11220;48.812;9.128;2023-08-31T00:04:05;20.20;99.90
22108;DHT22;11220;48.812;9.128;2023-08-31T00:06:36;20.20;99.90
22108;DHT22;11220;48.812;9.128;2023-08-31T00:09:01;20.20;99.90
22108;DHT22;11220;48.812;9.128;2023-08-31T00:11:30;20.20;99.90
22108;DHT22;11220;48.812;9.128;2023-08-31T00:13:55;20.20;99.90
22108;DHT22;11220;48.812;9.128;2023-08-31T00:16:24;20.30;99.90
22108;DHT22;11220;48.812;9.128;2023-08-31T00:18:51;20.20;99.90
22108;DHT22;11220;48.812;9.128;2023-08-31T00:21:16;20.20;99.90
22108;DHT22;11220;48.812;9.128;2023-08-31T00:23:42;20.30;99.90
22108;DHT22;11220;48.812;9.128;2023-08-31T00:26:08;20.30;99.90
22108;DHT22;11220;48.812;9.128;2023-08-31T00:28:34;20.20;99.90
22108;DHT22;11220;48.812;9.128;2023-08-31T00:31:03;20.20;99.90
22108;DHT22;11220;48.812;9.128;2023-08-31T00:33:29;20.20;99.90
22108;DHT22;11220;48.812;9.128;2023-08-31T00:35:54;20.20;99.90
22108;DHT22;11220;48.812;9.128;2023-08-31T00:38:22;20.20;99.90
22108;DHT22;11220;48.812;9.128;2023-08-31T00:40:48;20.10;99.90
22108;DHT22;11220;48.812;9.128;2023-08-31T00:43:13;20.10;99.90
22108;DHT22;11220;48.812;9.128;2023-08-31T00:45:44;20.10;99.90
22108;DHT22;11220;48.812;9.128;2023-08-31T00:48:11;20.10;99.90
22108;DHT22;11220;48.812;9.128;2023-08-31T00:50:37;20.20;99.90
22108;DHT22;11220;48.812;9.128;2023-08-31T00:53:03;20.00;99.90
22108;DHT22;11220;48.812;9.128;2023-08-31T00:55:29;20.10;99.90
22108;DHT22;11220;48.812;9.128;2023-08-31T00:57:55;20.10;99.90
22108;DHT22;11220;48.812;9.128;2023-08-31T01:00:23;20.10;99.90
22108;DHT22;11220;48.812;9.128;2023-08-31T01:03:03;20.30;99.90
22108;DHT22;11220;48.812;9.128;2023-08-31T01:10:46;20.10;99.90
22108;DHT22;11220;48.812;9.128;2023-08-31T01:13:21;20.10;99.90
22108;DHT22;11220;48.812;9.128;2023-08-31T01:15:53;20.10;99.90
22108;DHT22;11220;48.812;9.128;2023-08-31T01:18:21;20.00;99.90
22108;DHT22;11220;48.812;9.128;2023-08-31T01:21:04;20.00;99.90
22108;DHT22;11220;48.812;9.128;2023-08-31T01:23:49;20.00;99.90
22108;DHT22;11220;48.812;9.128;2023-08-31T01:26:15;20.00;99.90
22108;DHT22;11220;48.812;9.128;2023-08-31T01:28:40;20.00;99.90
22108;DHT22;11220;48.812;9.128;2023-08-31T01:31:06;20.10;99.90
22108;DHT22;11220;48.812;9.128;2023-08-31T01:33:32;20.00;99.90
22108;DHT22;11220;48.812;9.128;2023-08-31T01:35:59;20.50;99.90
22108;DHT22;11220;48.812;9.128;2023-08-31T01:38:28;20.00;99.90
22108;DHT22;11220;48.812;9.128;2023-08-31T01:41:06;19.90;99.90
22108;DHT22;11220;48.812;9.128;2023-08-31T01:43:33;20.00;99.90
22108;DHT22;11220;48.812;9.128;2023-08-31T01:45:59;20.00;99.90
22108;DHT22;11220;48.812;9.128;2023-08-31T01:48:25;20.00;99.90
22108;DHT22;11220;48.812;9.128;2023-08-31T01:50:50;20.00;99.90
22108;DHT22;11220;48.812;9.128;2023-08-31T01:53:16;20.10;99.90
22108;DHT22;11220;48.812;9.128;2023-08-31T01:55:41;20.00;99.90
22108;DHT22;11220;48.812;9.128;2023-08-31T01:58:07;20.10;99.90
22108;DHT22;11220;48.812;9.128;2023-08-31T02:00:32;20.00;99.90
22108;DHT22;11220;48.812;9.128;2023-08-31T02:03:01;20.20;99.90
22108;DHT22;11220;48.812;9.128;2023-08-31T02:05:26;19.90;99.90
22108;DHT22;11220;48.812;9.128;2023-08-31T02:07:52;20.00;99.90
22108;DHT22;11220;48.812;9.128;2023-08-31T02:10:17;20.00;99.90
22108;DHT22;11220;48.812;9.128;2023-08-31T02:12:43;20.00;99.90
22108;DHT22;11220;48.812;9.128;2023-08-31T02:15:09;19.90;99.90
22108;DHT22;11220;48.812;9.128;2023-08-31T02:17:35;19.90;99.90
22108;DHT22;11220;48.812;9.128;2023-08-31T02:20:01;19.90;99.90
22108;DHT22;11220;48.812;9.128;2023-08-31T02:22:30;19.90;99.90
22108;DHT22;11220;48.812;9.128;2023-08-31T02:24:56;19.90;99.90
22108;DHT22;11220;48.812;9.128;2023-08-31T02:27:22;19.90;99.90
22108;DHT22;11220;48.812;9.128;2023-08-31T02:29:48;20.00;99.90
22108;DHT22;11220;48.812;9.128;2023-08-31T02:32:13;19.90;99.90
22108;DHT22;11220;48.812;9.128;2023-08-31T02:34:39;19.90;99.90
22108;DHT22;11220;48.812;9.128;2023-08-31T02:37:04;19.90;99.90
22108;DHT22;11220;48.812;9.128;2023-08-31T02:39:30;19.90;99.90
22108;DHT22;11220;48.812;9.128;2023-08-31T02:41:55;19.90;99.90
22108;DHT22;11220;48.812;9.128;2023-08-31T02:44:21;19.90;99.90
22108;DHT22;11220;48.812;9.128;2023-08-31T02:46:46;19.90;99.90
22108;DHT22;11220;48.812;9.128;2023-08-31T02:49:12;19.90;99.90
22108;DHT22;11220;48.812;9.128;2023-08-31T02:51:37;20.00;99.90
22108;DHT22;11220;48.812;9.128;2023-08-31T02:54:03;19.90;99.90
22108;DHT22;11220;48.812;9.128;2023-08-31T02:56:28;19.90;99.90
22108;DHT22;11220;48.812;9.128;2023-08-31T02:58:54;19.90;99.90
22108;DHT22;11220;48.812;9.128;2023-08-31T03:01:19;19.90;99.90
22108;DHT22;11220;48.812;9.128;2023-08-31T03:03:45;19.90;99.90
22108;DHT22;11220;48.812;9.128;2023-08-31T03:06:12;19.90;99.90
22108;DHT22;11220;48.812;9.128;2023-08-31T03:08:38;19.90;99.90
22108;DHT22;11220;48.812;9.128;2023-08-31T03:11:04;20.00;99.90
22108;DHT22;11220;48.812;9.128;2023-08-31T03:13:31;20.00;99.90
22108;DHT22;11220;48.812;9.128;2023-08-31T03:15:57;19.90;99.90
22108;DHT22;11220;48.812;9.128;2023-08-31T03:18:23;19.90;99.90
22108;DHT22;11220;48.812;9.128;2023-08-31T03:20:49;20.30;99.90
22108;DHT22;11220;48.812;9.128;2023-08-31T03:23:14;19.90;99.90
22108;DHT22;11220;48.812;9.128;2023-08-31T03:25:40;20.00;99.90
22108;DHT22;11220;48.812;9.128;2023-08-31T03:28:05;20.00;99.90
22108;DHT22;11220;48.812;9.128;2023-08-31T03:30:31;19.90;99.90
22108;DHT22;11220;48.812;9.128;2023-08-31T03:32:57;19.90;99.90
22108;DHT22;11220;48.812;9.128;2023-08-31T03:35:22;19.90;99.90
22108;DHT22;11220;48.812;9.128;2023-08-31T03:37:52;19.90;99.90
22108;DHT22;11220;48.812;9.128;2023-08-31T03:40:18;19.90;99.90
22108;DHT22;11220;48.812;9.128;2023-08-31T03:42:44;20.10;99.90
22108;DHT22;11220;48.812;9.128;2023-08-31T03:45:10;19.90;99.90
22108;DHT22;11220;48.812;9.128;2023-08-31T03:47:36;20.00;99.90
22108;DHT22;11220;48.812;9.128;2023-08-31T03:50:01;19.90;99.90
22108;DHT22;11220;48.812;9.128;2023-08-31T03:52:27;19.90;99.90
22108;DHT22;11220;48.812;9.128;2023-08-31T03:54:52;20.00;99.90
22108;DHT22;11220;48.812;9.128;2023-08-31T03:57:18;19.90;99.90
22108;DHT22;11220;48.812;9.128;2023-08-31T03:59:43;19.90;99.90
22108;DHT22;11220;48.812;9.128;2023-08-31T04:02:09;19.80;99.90
22108;DHT22;11220;48.812;9.128;2023-08-31T04:04:34;19.90;99.90
22108;DHT22;11220;48.812;9.128;2023-08-31T04:07:00;19.80;99.90
22108;DHT22;11220;48.812;9.128;2023-08-31T04:09:25;19.80;99.90
22108;DHT22;11220;48.812;9.128;2023-08-31T04:11:51;19.90;99.90
22108;DHT22;11220;48.812;9.128;2023-08-31T04:14:17;19.80;99.90
22108;DHT22;11220;48.812;9.128;2023-08-31T04:16:44;19.80;99.90
22108;DHT22;11220;48.812;9.128;2023-08-31T04:19:09;19.80;99.90
22108;DHT22;11220;48.812;9.128;2023-08-31T04:21:35;19.80;99.90
22108;DHT22;11220;48.812;9.128;2023-08-31T04:24:01;19.80;99.90
22108;DHT22;11220;48.812;9.128;2023-08-31T04:26:27;19.80;99.90
22108;DHT22;11220;48.812;9.128;2023-08-31T04:28:53;19.80;99.90
22108;DHT22;11220;48.812;9.128;2023-08-31T04:31:18;19.80;99.90
22108;DHT22;11220;48.812;9.128;2023-08-31T04:33:45;20.10;99.90
22108;DHT22;11220;48.812;9.128;2023-08-31T04:36:10;19.80;99.90
22108;DHT22;11220;48.812;9.128;2023-08-31T04:38:37;19.90;99.90
22108;DHT22;11220;48.812;9.128;2023-08-31T04:41:03;19.80;99.90
22108;DHT22;11220;48.812;9.128;2023-08-31T04:43:29;19.80;99.90
22108;DHT22;11220;48.812;9.128;2023-08-31T04:45:55;19.70;99.90
22108;DHT22;11220;48.812;9.128;2023-08-31T04:48:21;20.10;99.90
22108;DHT22;11220;48.812;9.128;2023-08-31T04:50:47;19.80;99.90
22108;DHT22;11220;48.812;9.128;2023-08-31T04:53:13;19.80;99.90
22108;DHT22;11220;48.812;9.128;2023-08-31T04:55:38;19.80;99.90
22108;DHT22;11220;48.812;9.128;2023-08-31T04:58:04;19.80;99.90
22108;DHT22;11220;48.812;9.128;2023-08-31T05:00:30;19.80;99.90
22108;DHT22;11220;48.812;9.128;2023-08-31T05:02:56;19.80;99.90
22108;DHT22;11220;48.812;9.128;2023-08-31T05:05:22;19.90;99.90
22108;DHT22;11220;48.812;9.128;2023-08-31T05:07:47;19.80;99.90
22108;DHT22;11220;48.812;9.128;2023-08-31T05:10:13;19.80;99.90
22108;DHT22;11220;48.812;9.128;2023-08-31T05:12:39;19.80;99.90
22108;DHT22;11220;48.812;9.128;2023-08-31T05:15:05;19.90;99.90
22108;DHT22;11220;48.812;9.128;2023-08-31T05:17:31;19.80;99.90
22108;DHT22;11220;48.812;9.128;2023-08-31T05:19:57;19.80;99.90
22108;DHT22;11220;48.812;9.128;2023-08-31T05:22:22;19.80;99.90
22108;DHT22;11220;48.812;9.128;2023-08-31T05:24:48;19.70;99.90
22108;DHT22;11220;48.812;9.128;2023-08-31T05:27:14;19.80;99.90
22108;DHT22;11220;48.812;9.128;2023-08-31T05:29:39;19.80;99.90
22108;DHT22;11220;48.812;9.128;2023-08-31T05:32:05;19.80;99.90
22108;DHT22;11220;48.812;9.128;2023-08-31T05:34:31;19.80;99.90
22108;DHT22;11220;48.812;9.128;2023-08-31T05:36:58;19.80;99.90
22108;DHT22;11220;48.812;9.128;2023-08-31T05:39:24;20.40;99.90
22108;DHT22;11220;48.812;9.128;2023-08-31T05:41:50;19.80;99.90
22108;DHT22;11220;48.812;9.128;2023-08-31T05:44:16;19.80;99.90
22108;DHT22;11220;48.812;9.128;2023-08-31T05:46:42;19.80;99.90
22108;DHT22;11220;48.812;9.128;2023-08-31T05:49:07;19.80;99.90
22108;DHT22;11220;48.812;9.128;2023-08-31T05:51:33;19.80;99.90
22108;DHT22;11220;48.812;9.128;2023-08-31T05:53:59;19.80;99.90
22108;DHT22;11220;48.812;9.128;2023-08-31T05:56:24;19.80;99.90
22108;DHT22;11220;48.812;9.128;2023-08-31T05:58:50;19.70;99.90
22108;DHT22;11220;48.812;9.128;2023-08-31T06:01:16;19.80;99.90
22108;DHT22;11220;48.812;9.128;2023-08-31T06:03:41;19.80;99.90
22108;DHT22;11220;48.812;9.128;2023-08-31T06:06:07;19.70;99.90
22108;DHT22;11220;48.812;9.128;2023-08-31T06:08:32;19.80;99.90
22108;DHT22;11220;48.812;9.128;2023-08-31T06:10:58;19.80;99.90
22108;DHT22;11220;48.812;9.128;2023-08-31T06:13:24;19.80;99.90
22108;DHT22;11220;48.812;9.128;2023-08-31T06:15:49;19.80;99.90
22108;DHT22;11220;48.812;9.128;2023-08-31T06:18:15;19.70;99.90
22108;DHT22;11220;48.812;9.128;2023-08-31T06:20:41;19.80;99.90
22108;DHT22;11220;48.812;9.128;2023-08-31T06:23:06;19.80;99.90
22108;DHT22;11220;48.812;9.128;2023-08-31T06:25:32;20.10;99.90
22108;DHT22;11220;48.812;9.128;2023-08-31T06:27:57;19.80;99.90
22108;DHT22;11220;48.812;9.128;2023-08-31T06:30:23;19.80;99.90
22108;DHT22;11220;48.812;9.128;2023-08-31T06:32:49;19.90;99.90
22108;DHT22;11220;48.812;9.128;2023-08-31T06:35:15;19.80;99.90
22108;DHT22;11220;48.812;9.128;2023-08-31T06:37:42;19.90;99.90
22108;DHT22;11220;48.812;9.128;2023-08-31T06:40:09;19.80;99.90
22108;DHT22;11220;48.812;9.128;2023-08-31T06:42:38;19.80;99.90
22108;DHT22;11220;48.812;9.128;2023-08-31T06:45:05;19.80;99.90
22108;DHT22;11220;48.812;9.128;2023-08-31T06:47:31;19.80;99.90
22108;DHT22;11220;48.812;9.128;2023-08-31T06:49:57;19.90;99.90
22108;DHT22;11220;48.812;9.128;2023-08-31T06:52:26;19.90;99.90
22108;DHT22;11220;48.812;9.128;2023-08-31T06:54:52;19.90;99.90
22108;DHT22;11220;48.812;9.128;2023-08-31T06:57:23;19.90;99.90
22108;DHT22;11220;48.812;9.128;2023-08-31T06:59:48;19.90;99.90
22108;DHT22;11220;48.812;9.128;2023-08-31T07:02:14;20.10;99.90
22108;DHT22;11220;48.812;9.128;2023-08-31T07:04:40;20.00;99.90
22108;DHT22;11220;48.812;9.128;2023-08-31T07:07:06;20.20;99.90
22108;DHT22;11220;48.812;9.128;2023-08-31T07:09:34;20.00;99.90
22108;DHT22;11220;48.812;9.128;2023-08-31T07:11:59;19.90;99.90
22108;DHT22;11220;48.812;9.128;2023-08-31T07:14:25;20.00;99.90
22108;DHT22;11220;48.812;9.128;2023-08-31T07:16:51;20.00;99.90
22108;DHT22;11220;48.812;9.128;2023-08-31T07:19:16;19.90;99.90
22108;DHT22;11220;48.812;9.128;2023-08-31T07:21:42;20.00;99.90
22108;DHT22;11220;48.812;9.128;2023-08-31T07:24:07;20.00;99.90
22108;DHT22;11220;48.812;9.128;2023-08-31T07:26:33;20.00;99.90
22108;DHT22;11220;48.812;9.128;2023-08-31T07:29:00;20.00;99.90
22108;DHT22;11220;48.812;9.128;2023-08-31T07:31:27;20.00;99.90
22108;DHT22;11220;48.812;9.128;2023-08-31T07:33:52;20.00;99.90
22108;DHT22;11220;48.812;9.128;2023-08-31T07:36:18;20.10;99.90
22108;DHT22;11220;48.812;9.128;2023-08-31T07:38:43;20.10;99.90
22108;DHT22;11220;48.812;9.128;2023-08-31T07:41:09;20.00;99.90
22108;DHT22;11220;48.812;9.128;2023-08-31T07:43:34;20.10;99.90
22108;DHT22;11220;48.812;9.128;2023-08-31T07:46:00;20.30;99.90
22108;DHT22;11220;48.812;9.128;2023-08-31T07:48:25;20.10;99.90
22108;DHT22;11220;48.812;9.128;2023-08-31T07:50:51;20.10;99.90
22108;DHT22;11220;48.812;9.128;2023-08-31T07:53:17;20.10;99.90
22108;DHT22;11220;48.812;9.128;2023-08-31T07:55:51;20.10;99.90
22108;DHT22;11220;48.812;9.128;2023-08-31T07:58:17;20.10;99.90
22108;DHT22;11220;48.812;9.128;2023-08-31T08:00:42;20.10;99.90
22108;DHT22;11220;48.812;9.128;2023-08-31T08:03:08;20.10;99.90
22108;DHT22;11220;48.812;9.128;2023-08-31T08:05:33;20.10;99.90
22108;DHT22;11220;48.812;9.128;2023-08-31T08:07:59;20.20;99.90
22108;DHT22;11220;48.812;9.128;2023-08-31T08:10:25;20.20;99.90
22108;DHT22;11220;48.812;9.128;2023-08-31T08:12:50;20.30;99.90
22108;DHT22;11220;48.812;9.128;2023-08-31T08:15:16;20.20;99.90
22108;DHT22;11220;48.812;9.128;2023-08-31T08:17:41;20.20;99.90
22108;DHT22;11220;48.812;9.128;2023-08-31T08:20:07;20.20;99.90
22108;DHT22;11220;48.812;9.128;2023-08-31T08:22:33;20.20;99.90
22108;DHT22;11220;48.812;9.128;2023-08-31T08:24:59;20.20;99.90
22108;DHT22;11220;48.812;9.128;2023-08-31T08:27:24;20.20;99.90
22108;DHT22;11220;48.812;9.128;2023-08-31T08:29:50;20.20;99.90
22108;DHT22;11220;48.812;9.128;2023-08-31T08:32:15;20.10;99.90
22108;DHT22;11220;48.812;9.128;2023-08-31T08:34:41;20.30;99.90
22108;DHT22;11220;48.812;9.128;2023-08-31T08:37:06;20.20;99.90
22108;DHT22;11220;48.812;9.128;2023-08-31T08:39:32;20.30;99.90
22108;DHT22;11220;48.812;9.128;2023-08-31T08:41:58;20.30;99.90
22108;DHT22;11220;48.812;9.128;2023-08-31T08:44:32;20.30;99.90
22108;DHT22;11220;48.812;9.128;2023-08-31T08:46:59;20.30;99.90
22108;DHT22;11220;48.812;9.128;2023-08-31T08:49:26;20.40;99.90
22108;DHT22;11220;48.812;9.128;2023-08-31T08:51:53;20.50;99.90
22108;DHT22;11220;48.812;9.128;2023-08-31T08:54:20;20.40;99.90
22108;DHT22;11220;48.812;9.128;2023-08-31T08:56:47;20.40;99.90
22108;DHT22;11220;48.812;9.128;2023-08-31T08:59:12;20.50;99.90
22108;DHT22;11220;48.812;9.128;2023-08-31T09:01:39;20.40;99.90
22108;DHT22;11220;48.812;9.128;2023-08-31T09:04:05;20.50;99.90
22108;DHT22;11220;48.812;9.128;2023-08-31T09:06:32;20.50;99.90
22108;DHT22;11220;48.812;9.128;2023-08-31T09:08:57;20.40;99.90
22108;DHT22;11220;48.812;9.128;2023-08-31T09:11:24;20.50;99.90
22108;DHT22;11220;48.812;9.128;2023-08-31T09:13:51;20.50;99.90
22108;DHT22;11220;48.812;9.128;2023-08-31T09:16:27;20.40;99.90
22108;DHT22;11220;48.812;9.128;2023-08-31T09:18:54;20.50;99.90
22108;DHT22;11220;48.812;9.128;2023-08-31T09:21:20;20.50;99.90
22108;DHT22;11220;48.812;9.128;2023-08-31T09:23:56;20.50;99.90
22108;DHT22;11220;48.812;9.128;2023-08-31T09:26:25;20.50;99.90
22108;DHT22;11220;48.812;9.128;2023-08-31T09:28:51;20.50;99.90
22108;DHT22;11220;48.812;9.128;2023-08-31T09:31:18;20.60;99.90
22108;DHT22;11220;48.812;9.128;2023-08-31T09:33:50;20.80;99.90
22108;DHT22;11220;48.812;9.128;2023-08-31T09:36:16;20.60;99.90
22108;DHT22;11220;48.812;9.128;2023-08-31T09:38:43;20.60;99.90
22108;DHT22;11220;48.812;9.128;2023-08-31T09:41:09;20.60;99.90
22108;DHT22;11220;48.812;9.128;2023-08-31T09:43:34;20.60;99.90
22108;DHT22;11220;48.812;9.128;2023-08-31T09:46:02;20.60;99.90
22108;DHT22;11220;48.812;9.128;2023-08-31T09:48:29;20.60;99.90
22108;DHT22;11220;48.812;9.128;2023-08-31T09:50:55;20.60;99.90
22108;DHT22;11220;48.812;9.128;2023-08-31T09:53:23;20.60;99.90
22108;DHT22;11220;48.812;9.128;2023-08-31T09:55:51;20.90;99.90
22108;DHT22;11220;48.812;9.128;2023-08-31T09:58:20;20.60;99.90
22108;DHT22;11220;48.812;9.128;2023-08-31T10:00:46;20.60;99.90
22108;DHT22;11220;48.812;9.128;2023-08-31T10:03:14;20.80;99.90
22108;DHT22;11220;48.812;9.128;2023-08-31T10:05:44;20.60;99.90
22108;DHT22;11220;48.812;9.128;2023-08-31T10:08:13;20.60;99.90
22108;DHT22;11220;48.812;9.128;2023-08-31T10:10:40;20.60;99.90
22108;DHT22;11220;48.812;9.128;2023-08-31T10:13:06;20.60;99.90
22108;DHT22;11220;48.812;9.128;2023-08-31T10:15:33;20.60;99.90
22108;DHT22;11220;48.812;9.128;2023-08-31T10:18:00;20.60;99.90
22108;DHT22;11220;48.812;9.128;2023-08-31T10:20:26;20.70;99.90
22108;DHT22;11220;48.812;9.128;2023-08-31T10:22:59;20.70;99.90
22108;DHT22;11220;48.812;9.128;2023-08-31T10:25:25;20.70;99.90
22108;DHT22;11220;48.812;9.128;2023-08-31T10:28:18;20.60;99.90
22108;DHT22;11220;48.812;9.128;2023-08-31T10:34:01;20.60;99.30
22108;DHT22;11220;48.812;9.128;2023-08-31T10:39:06;20.70;99.30
22108;DHT22;11220;48.812;9.128;2023-08-31T10:41:36;20.70;99.30
22108;DHT22;11220;48.812;9.128;2023-08-31T10:44:02;20.70;99.30
22108;DHT22;11220;48.812;9.128;2023-08-31T10:46:43;20.70;99.20
22108;DHT22;11220;48.812;9.128;2023-08-31T10:51:34;20.70;99.10
22108;DHT22;11220;48.812;9.128;2023-08-31T10:56:33;20.80;99.00
22108;DHT22;11220;48.812;9.128;2023-08-31T10:59:02;20.70;98.90
22108;DHT22;11220;48.812;9.128;2023-08-31T11:04:13;20.80;98.90
22108;DHT22;11220;48.812;9.128;2023-08-31T11:06:38;20.80;98.80
22108;DHT22;11220;48.812;9.128;2023-08-31T11:09:04;20.80;98.80
22108;DHT22;11220;48.812;9.128;2023-08-31T11:11:37;20.80;98.80
22108;DHT22;11220;48.812;9.128;2023-08-31T11:14:03;20.90;98.70
22108;DHT22;11220;48.812;9.128;2023-08-31T11:16:30;20.80;98.60
22108;DHT22;11220;48.812;9.128;2023-08-31T11:18:56;20.90;98.50
22108;DHT22;11220;48.812;9.128;2023-08-31T11:21:21;20.80;98.50
22108;DHT22;11220;48.812;9.128;2023-08-31T11:23:48;20.70;98.50
22108;DHT22;11220;48.812;9.128;2023-08-31T11:26:14;20.80;98.60
22108;DHT22;11220;48.812;9.128;2023-08-31T11:28:43;20.90;98.60
22108;DHT22;11220;48.812;9.128;2023-08-31T11:31:09;20.90;98.60
22108;DHT22;11220;48.812;9.128;2023-08-31T11:33:34;20.90;98.60
22108;DHT22;11220;48.812;9.128;2023-08-31T11:36:01;20.90;98.60
22108;DHT22;11220;48.812;9.128;2023-08-31T11:38:28;20.90;98.40
22108;DHT22;11220;48.812;9.128;2023-08-31T11:40:57;20.90;98.40
22108;DHT22;11220;48.812;9.128;2023-08-31T11:43:24;21.40;98.60
22108;DHT22;11220;48.812;9.128;2023-08-31T11:45:49;20.90;98.50
22108;DHT22;11220;48.812;9.128;2023-08-31T11:48:15;21.00;98.50
22108;DHT22;11220;48.812;9.128;2023-08-31T11:50:41;21.00;98.40
22108;DHT22;11220;48.812;9.128;2023-08-31T11:53:07;20.90;98.30
22108;DHT22;11220;48.812;9.128;2023-08-31T11:55:33;21.00;98.30
22108;DHT22;11220;48.812;9.128;2023-08-31T11:57:58;21.00;98.20
22108;DHT22;11220;48.812;9.128;2023-08-31T12:00:24;21.00;98.10
22108;DHT22;11220;48.812;9.128;2023-08-31T12:02:59;21.00;98.10
22108;DHT22;11220;48.812;9.128;2023-08-31T12:05:26;21.00;98.10
22108;DHT22;11220;48.812;9.128;2023-08-31T12:07:56;21.10;98.10
22108;DHT22;11220;48.812;9.128;2023-08-31T12:10:26;21.00;98.10
22108;DHT22;11220;48.812;9.128;2023-08-31T12:12:52;21.10;98.10
22108;DHT22;11220;48.812;9.128;2023-08-31T12:15:18;21.10;98.10
22108;DHT22;11220;48.812;9.128;2023-08-31T12:17:47;21.00;98.10
22108;DHT22;11220;48.812;9.128;2023-08-31T12:20:16;21.10;98.10
22108;DHT22;11220;48.812;9.128;2023-08-31T12:22:42;21.10;98.10
22108;DHT22;11220;48.812;9.128;2023-08-31T12:25:07;21.10;98.10
22108;DHT22;11220;48.812;9.128;2023-08-31T12:27:33;21.10;98.00
22108;DHT22;11220;48.812;9.128;2023-08-31T12:29:58;21.10;98.10
22108;DHT22;11220;48.812;9.128;2023-08-31T12:32:24;21.30;98.20
22108;DHT22;11220;48.812;9.128;2023-08-31T12:34:50;21.20;98.30
22108;DHT22;11220;48.812;9.128;2023-08-31T12:37:15;21.30;98.40
22108;DHT22;11220;48.812;9.128;2023-08-31T12:39:41;21.40;98.50
22108;DHT22;11220;48.812;9.128;2023-08-31T12:42:10;21.50;98.60
22108;DHT22;11220;48.812;9.128;2023-08-31T12:44:35;21.50;98.70
22108;DHT22;11220;48.812;9.128;2023-08-31T12:47:02;21.40;98.80
22108;DHT22;11220;48.812;9.128;2023-08-31T12:49:30;21.40;99.00
22108;DHT22;11220;48.812;9.128;2023-08-31T12:51:55;21.40;99.00
22108;DHT22;11220;48.812;9.128;2023-08-31T12:54:21;21.40;99.10
22108;DHT22;11220;48.812;9.128;2023-08-31T12:56:46;21.40;99.20
22108;DHT22;11220;48.812;9.128;2023-08-31T12:59:12;21.40;99.10
22108;DHT22;11220;48.812;9.128;2023-08-31T13:01:37;21.40;99.30
22108;DHT22;11220;48.812;9.128;2023-08-31T13:04:03;21.40;99.30
22108;DHT22;11220;48.812;9.128;2023-08-31T13:06:30;21.40;99.40
22108;DHT22;11220;48.812;9.128;2023-08-31T13:08:55;21.40;99.40
22108;DHT22;11220;48.812;9.128;2023-08-31T13:11:21;21.40;99.40
22108;DHT22;11220;48.812;9.128;2023-08-31T13:13:49;21.50;99.50
22108;DHT22;11220;48.812;9.128;2023-08-31T13:16:16;21.40;99.40
22108;DHT22;11220;48.812;9.128;2023-08-31T13:18:42;21.50;99.60
22108;DHT22;11220;48.812;9.128;2023-08-31T13:21:07;21.50;99.60
22108;DHT22;11220;48.812;9.128;2023-08-31T13:23:33;22.00;99.70
22108;DHT22;11220;48.812;9.128;2023-08-31T13:25:59;21.50;99.70
22108;DHT22;11220;48.812;9.128;2023-08-31T13:28:24;21.50;99.60
22108;DHT22;11220;48.812;9.128;2023-08-31T13:30:54;21.60;99.50
22108;DHT22;11220;48.812;9.128;2023-08-31T13:33:20;21.60;99.60
22108;DHT22;11220;48.812;9.128;2023-08-31T13:35:46;21.70;99.60
22108;DHT22;11220;48.812;9.128;2023-08-31T13:38:11;21.70;99.60
22108;DHT22;11220;48.812;9.128;2023-08-31T13:40:37;21.80;99.60
22108;DHT22;11220;48.812;9.128;2023-08-31T13:43:03;21.90;99.70
22108;DHT22;11220;48.812;9.128;2023-08-31T13:45:29;21.90;99.90
22108;DHT22;11220;48.812;9.128;2023-08-31T13:47:58;22.10;99.90
22108;DHT22;11220;48.812;9.128;2023-08-31T13:50:28;21.90;99.90
22108;DHT22;11220;48.812;9.128;2023-08-31T13:52:54;21.90;99.90
22108;DHT22;11220;48.812;9.128;2023-08-31T13:55:20;22.00;99.90
22108;DHT22;11220;48.812;9.128;2023-08-31T13:57:45;22.00;99.90
22108;DHT22;11220;48.812;9.128;2023-08-31T14:00:12;21.80;99.90
22108;DHT22;11220;48.812;9.128;2023-08-31T14:02:38;21.80;99.90
22108;DHT22;11220;48.812;9.128;2023-08-31T14:05:04;21.80;99.90
22108;DHT22;11220;48.812;9.128;2023-08-31T14:07:32;21.70;99.90
22108;DHT22;11220;48.812;9.128;2023-08-31T14:09:58;21.70;99.80
22108;DHT22;11220;48.812;9.128;2023-08-31T14:12:23;21.70;99.70
22108;DHT22;11220;48.812;9.128;2023-08-31T14:14:51;21.70;99.60
22108;DHT22;11220;48.812;9.128;2023-08-31T14:17:16;22.10;99.60
22108;DHT22;11220;48.812;9.128;2023-08-31T14:19:42;21.60;99.40
22108;DHT22;11220;48.812;9.128;2023-08-31T14:22:07;21.60;99.40
22108;DHT22;11220;48.812;9.128;2023-08-31T14:24:35;21.60;99.20
22108;DHT22;11220;48.812;9.128;2023-08-31T14:27:02;22.00;99.30
22108;DHT22;11220;48.812;9.128;2023-08-31T14:29:28;21.60;99.10
22108;DHT22;11220;48.812;9.128;2023-08-31T14:31:54;21.60;99.00
22108;DHT22;11220;48.812;9.128;2023-08-31T14:34:20;21.60;99.00
22108;DHT22;11220;48.812;9.128;2023-08-31T14:36:45;22.00;99.20
22108;DHT22;11220;48.812;9.128;2023-08-31T14:39:11;21.60;99.00
22108;DHT22;11220;48.812;9.128;2023-08-31T14:41:36;21.70;99.10
22108;DHT22;11220;48.812;9.128;2023-08-31T14:44:01;21.60;99.00
22108;DHT22;11220;48.812;9.128;2023-08-31T14:46:27;21.60;99.00
22108;DHT22;11220;48.812;9.128;2023-08-31T14:48:53;21.60;98.90
22108;DHT22;11220;48.812;9.128;2023-08-31T14:51:18;21.70;98.90
22108;DHT22;11220;48.812;9.128;2023-08-31T14:53:44;21.60;98.80
22108;DHT22;11220;48.812;9.128;2023-08-31T14:56:09;22.30;99.50
22108;DHT22;11220;48.812;9.128;2023-08-31T14:58:35;21.60;98.80
22108;DHT22;11220;48.812;9.128;2023-08-31T15:01:00;21.50;98.70
22108;DHT22;11220;48.812;9.128;2023-08-31T15:03:27;21.60;98.70
22108;DHT22;11220;48.812;9.128;2023-08-31T15:05:52;21.60;98.70
22108;DHT22;11220;48.812;9.128;2023-08-31T15:08:18;21.60;98.70
22108;DHT22;11220;48.812;9.128;2023-08-31T15:10:43;21.60;98.70
22108;DHT22;11220;48.812;9.128;2023-08-31T15:13:09;21.60;98.70
22108;DHT22;11220;48.812;9.128;2023-08-31T15:15:34;21.60;98.70
22108;DHT22;11220;48.812;9.128;2023-08-31T15:18:00;21.70;98.70
22108;DHT22;11220;48.812;9.128;2023-08-31T15:20:26;21.60;98.70
22108;DHT22;11220;48.812;9.128;2023-08-31T15:22:53;21.60;98.70
22108;DHT22;11220;48.812;9.128;2023-08-31T15:25:18;21.70;99.20
22108;DHT22;11220;48.812;9.128;2023-08-31T15:27:44;21.60;98.80
22108;DHT22;11220;48.812;9.128;2023-08-31T15:30:10;21.60;98.70
22108;DHT22;11220;48.812;9.128;2023-08-31T15:32:36;21.60;98.70
22108;DHT22;11220;48.812;9.128;2023-08-31T15:35:05;21.50;98.70
22108;DHT22;11220;48.812;9.128;2023-08-31T15:37:30;21.60;98.70
22108;DHT22;11220;48.812;9.128;2023-08-31T15:39:56;21.60;98.60
22108;DHT22;11220;48.812;9.128;2023-08-31T15:42:25;21.60;98.50
22108;DHT22;11220;48.812;9.128;2023-08-31T15:44:50;21.60;98.50